This is the latest recevied weather packets stored in our database for station/object KI4NG. If no packets are shown the sender has not sent any weather packets the latest 10 day(s).
| Time | Temp. | Humidity | Pressure | Rain* | Wind** | Luminosity | Snow |
|---|---|---|---|---|---|---|---|
| 1777319401 | 24.44° C | 58% | 1017.3 hPa | 0 mm | - | 530 W/m² | - |
| 1777319098 | 24.44° C | 60% | 1017.5 hPa | 0 mm | - | 560 W/m² | - |
| 1777318795 | 24.44° C | 61% | 1017.5 hPa | 0 mm | - | 531 W/m² | - |
| 1777318491 | 24.44° C | 59% | 1017.5 hPa | 0 mm | - | 618 W/m² | - |
| 1777318188 | 24.44° C | 60% | 1017.6 hPa | 0 mm | - | 606 W/m² | - |
| 1777317885 | 23.89° C | 59% | 1017.6 hPa | 0 mm | - | 616 W/m² | - |
| 1777317582 | 23.89° C | 60% | 1017.8 hPa | 0 mm | - | 638 W/m² | - |
| 1777317279 | 23.89° C | 60% | 1018 hPa | 0 mm | - | 462 W/m² | - |
| 1777316974 | 23.89° C | 61% | 1017.8 hPa | 0 mm | - | 641 W/m² | - |
| 1777316672 | 23.89° C | 59% | 1017.9 hPa | 0 mm | - | 572 W/m² | - |
| 1777316368 | 23.89° C | 61% | 1017.6 hPa | 0 mm | - | 459 W/m² | - |
| 1777316066 | 23.89° C | 59% | 1017.7 hPa | 0 mm | - | 348 W/m² | - |
| 1777315764 | 23.89° C | 58% | 1017.9 hPa | 0 mm | - | 445 W/m² | - |
| 1777315462 | 24.44° C | 58% | 1017.7 hPa | 0 mm | - | 653 W/m² | - |
| 1777315159 | 24.44° C | 57% | 1017.8 hPa | 0 mm | - | 599 W/m² | - |
| 1777314855 | 25° C | 58% | 1017.6 hPa | 0 mm | - | 606 W/m² | - |
| 1777314551 | 24.44° C | 58% | 1018 hPa | 0 mm | - | 773 W/m² | - |
| 1777314248 | 25° C | 58% | 1017.8 hPa | 0 mm | - | 686 W/m² | - |
| 1777313946 | 25° C | 55% | 1017.8 hPa | 0 mm | - | 603 W/m² | - |
| 1777313643 | 25° C | 56% | 1017.7 hPa | 0 mm | - | 705 W/m² | - |
| 1777313341 | 23.89° C | 57% | 1018 hPa | 0 mm | - | 753 W/m² | - |
| 1777313037 | 23.89° C | 58% | 1017.7 hPa | 0 mm | - | 529 W/m² | - |
| 1777312733 | 23.89° C | 57% | 1017.6 hPa | 0 mm | - | 415 W/m² | - |
| 1777312430 | 23.89° C | 56% | 1017.7 hPa | 0 mm | - | 593 W/m² | - |
| 1777312127 | 23.89° C | 56% | 1017.9 hPa | 0 mm | - | 516 W/m² | - |
* Rain latest hour (hover to see other rain measurements)
** Current wind speed in m/s (hover to see current wind gust speed)